Time;durP1;ratioP1;P1;durP2;ratioP2;P2;SDS_P1;SDS_P2;PMS_P1;PMS_P2;Temp;Humidity;BMP_temperature;BMP_pressure;BME280_temperature;BME280_humidity;BME280_pressure;Samples;Min_cycle;Max_cycle;Signal;HPM_P1;HPM_P2
2023/09/19 00:03:54;;;;;;;2.45;1.52;;;17.40;99.90;;;17.76;99.70;97573.75;10419164;28;20287;-76
2023/09/19 00:08:58;;;;;;;1.80;1.63;;;17.30;99.90;;;17.74;100.00;97565.06;10417702;28;20222;-77
2023/09/19 00:14:04;;;;;;;1.60;1.50;;;17.20;99.90;;;18.00;97.97;97561.44;10427819;28;20225;-77
2023/09/19 00:19:08;;;;;;;1.58;1.48;;;17.30;99.90;;;17.91;99.92;97584.50;10423378;28;20276;-77
2023/09/19 00:24:12;;;;;;;2.45;1.70;;;17.30;99.90;;;17.74;99.85;97580.59;10421406;28;20295;-77
2023/09/19 00:29:17;;;;;;;1.80;1.70;;;17.20;99.90;;;17.69;100.00;97582.22;10425293;28;20259;-76
2023/09/19 00:34:20;;;;;;;2.35;1.63;;;17.20;99.90;;;17.69;100.00;97590.81;10428141;28;20491;-77
2023/09/19 00:39:25;;;;;;;1.50;1.40;;;17.10;99.90;;;17.61;100.00;97601.81;10439319;28;20241;-76
2023/09/19 00:44:30;;;;;;;1.38;1.27;;;17.00;99.90;;;17.52;100.00;97605.03;10436733;28;20240;-76
2023/09/19 00:49:34;;;;;;;1.70;1.60;;;17.00;99.90;;;17.46;100.00;97595.41;10423166;28;20490;-76
2023/09/19 00:54:37;;;;;;;1.60;1.50;;;16.90;99.90;;;17.45;100.00;97588.47;10424668;28;20217;-76
2023/09/19 00:59:43;;;;;;;1.88;1.60;;;16.90;99.90;;;17.48;100.00;97588.59;10429636;28;20235;-76
2023/09/19 01:04:46;;;;;;;1.67;1.33;;;16.90;99.90;;;17.59;99.66;97596.59;10424228;28;20250;-77
2023/09/19 01:09:50;;;;;;;2.58;1.45;;;17.00;99.90;;;17.71;99.28;97590.84;10425337;28;20657;-76
2023/09/19 01:15:01;;;;;;;2.25;1.58;;;17.10;99.90;;;17.69;99.45;97596.00;10428982;28;20220;-77
2023/09/19 01:20:25;;;;;;;1.60;1.35;;;17.00;99.90;;;17.70;100.00;97599.44;10424778;28;20315;-76
2023/09/19 01:26:19;;;;;;;1.63;1.30;;;17.00;99.90;;;17.63;100.00;97608.78;10427919;28;20245;-76
2023/09/19 01:31:30;;;;;;;1.60;1.50;;;16.90;99.90;;;17.88;96.35;97602.50;10424479;28;20284;-76
2023/09/19 01:36:36;;;;;;;1.55;1.45;;;17.00;99.90;;;17.98;95.39;97596.72;10422923;28;20762;-77
2023/09/19 01:41:55;;;;;;;1.50;1.40;;;17.20;99.90;;;18.03;93.76;97594.25;10423881;28;20899;-77
2023/09/19 01:47:11;;;;;;;2.05;1.27;;;17.40;99.90;;;17.96;94.44;97607.88;10415154;28;20338;-77
2023/09/19 01:52:16;;;;;;;2.05;1.33;;;17.30;99.90;;;17.89;96.18;97601.69;10420269;28;20278;-77
2023/09/19 01:57:29;;;;;;;2.10;1.30;;;17.20;99.90;;;17.99;95.03;97610.53;10428743;28;20222;-76
2023/09/19 02:02:37;;;;;;;1.70;1.40;;;17.20;99.90;;;18.07;94.20;97623.66;10418461;28;20229;-77
2023/09/19 02:07:41;;;;;;;1.50;1.40;;;17.40;99.90;;;18.17;92.92;97628.19;10427435;28;20229;-77
2023/09/19 02:12:44;;;;;;;1.20;1.10;;;17.40;99.90;;;18.19;92.62;97632.56;10423401;28;20228;-76
2023/09/19 02:17:49;;;;;;;1.70;1.60;;;17.50;99.90;;;18.17;92.78;97636.84;10426437;28;20771;-77
2023/09/19 02:22:52;;;;;;;2.22;1.60;;;17.40;99.90;;;18.10;93.39;97632.34;10423144;28;20263;-76
2023/09/19 02:27:58;;;;;;;2.15;1.63;;;17.30;99.90;;;18.07;95.23;97646.94;10423340;28;20272;-76
2023/09/19 02:33:05;;;;;;;1.45;1.30;;;17.30;99.90;;;18.04;95.77;97649.44;10423735;28;20232;-77
2023/09/19 02:38:11;;;;;;;1.38;1.33;;;17.30;99.90;;;17.92;96.35;97647.44;10421511;28;20335;-77
2023/09/19 02:43:14;;;;;;;1.70;1.60;;;17.30;99.90;;;17.80;96.89;97648.00;10421860;28;20268;-77
2023/09/19 02:48:19;;;;;;;2.28;1.60;;;17.10;99.90;;;17.71;97.58;97648.63;10423348;28;20240;-77
2023/09/19 02:53:23;;;;;;;1.45;1.35;;;17.00;99.90;;;17.72;96.99;97650.34;10450140;28;20210;-77
2023/09/19 02:58:27;;;;;;;1.67;1.58;;;17.00;99.90;;;17.56;97.59;97653.38;10443069;28;20244;-77
2023/09/19 03:03:33;;;;;;;2.28;1.60;;;16.90;99.90;;;17.61;97.13;97653.50;10429214;28;20250;-77
2023/09/19 03:08:39;;;;;;;2.15;1.50;;;16.80;99.90;;;17.48;97.16;97655.78;10422501;28;20221;-77
2023/09/19 03:13:45;;;;;;;1.77;1.67;;;16.80;99.90;;;17.27;97.76;97670.69;10426363;28;20221;-77
2023/09/19 03:18:50;;;;;;;1.70;1.58;;;16.60;99.90;;;17.20;97.84;97674.81;10423989;28;20247;-77
2023/09/19 03:23:54;;;;;;;1.52;1.42;;;16.50;99.90;;;17.21;97.61;97675.69;10427210;28;20597;-77
2023/09/19 03:28:57;;;;;;;2.03;1.55;;;16.50;99.90;;;17.10;99.22;97671.09;10411871;28;21143;-77
2023/09/19 03:34:02;;;;;;;1.60;1.50;;;16.50;99.90;;;17.15;99.78;97668.63;10422677;28;20246;-77
2023/09/19 03:39:07;;;;;;;1.70;1.50;;;16.50;99.90;;;17.39;98.18;97675.31;10416607;28;20243;-77
2023/09/19 03:44:11;;;;;;;1.75;1.65;;;16.60;99.90;;;17.30;98.49;97679.38;10418584;28;20309;-77
2023/09/19 03:49:15;;;;;;;1.70;1.60;;;16.60;99.90;;;17.34;99.99;97672.63;10425189;28;20231;-77
2023/09/19 03:54:19;;;;;;;1.55;1.50;;;16.60;99.90;;;17.32;100.00;97669.13;10426647;28;20224;-78
2023/09/19 03:59:22;;;;;;;1.92;1.83;;;16.70;99.90;;;17.45;100.00;97675.47;10415917;28;20234;-78
2023/09/19 04:04:29;;;;;;;2.22;1.80;;;16.70;99.90;;;17.39;100.00;97676.19;10412664;28;20709;-81
2023/09/19 04:09:32;;;;;;;2.40;1.80;;;16.70;99.90;;;17.36;99.65;97673.50;10415797;28;20232;-78
2023/09/19 04:14:35;;;;;;;2.97;1.85;;;16.70;99.90;;;17.48;99.45;97671.28;10425247;28;20241;-79
2023/09/19 04:19:41;;;;;;;1.92;1.70;;;16.70;99.90;;;17.45;100.00;97676.34;10420632;28;20247;-78
2023/09/19 04:24:45;;;;;;;1.88;1.77;;;16.80;99.90;;;17.49;99.97;97680.78;10431377;28;20231;-78
2023/09/19 04:29:53;;;;;;;1.77;1.60;;;16.80;99.90;;;17.58;100.00;97685.31;10423657;28;20232;-78
2023/09/19 04:35:00;;;;;;;2.05;1.85;;;16.80;99.90;;;17.48;99.46;97688.47;10422551;28;21009;-77
2023/09/19 04:40:05;;;;;;;1.63;1.52;;;16.80;99.90;;;17.51;100.00;97692.03;10421780;28;20362;-78
2023/09/19 04:45:10;;;;;;;1.88;1.77;;;16.80;99.90;;;17.65;99.44;97694.09;10415735;28;20229;-78
2023/09/19 04:50:17;;;;;;;1.60;1.50;;;16.80;99.90;;;17.61;99.45;97705.19;10425151;28;20229;-78
2023/09/19 04:55:21;;;;;;;2.20;1.67;;;16.90;99.90;;;17.77;97.44;97697.91;10425707;28;20648;-78
2023/09/19 05:00:27;;;;;;;2.45;1.88;;;17.00;99.90;;;17.75;96.90;97707.31;10424159;28;20232;-78
2023/09/19 05:05:32;;;;;;;2.33;1.75;;;17.00;99.90;;;17.73;97.55;97710.69;10447266;28;20226;-78
2023/09/19 05:10:37;;;;;;;1.70;1.60;;;17.00;99.90;;;17.70;98.66;97713.19;10444698;28;20244;-78
2023/09/19 05:15:41;;;;;;;2.38;1.70;;;16.90;99.90;;;17.78;98.11;97716.91;10448397;28;20622;-78
2023/09/19 05:20:45;;;;;;;1.92;1.73;;;17.00;99.90;;;17.81;98.22;97721.28;10435664;28;20239;-77
2023/09/19 05:25:49;;;;;;;2.17;2.00;;;17.00;99.90;;;17.77;98.39;97720.28;10442034;28;20788;-77
2023/09/19 05:30:52;;;;;;;1.90;1.73;;;17.00;99.90;;;17.82;97.49;97729.06;10432492;28;20252;-81
2023/09/19 05:35:57;;;;;;;1.75;1.60;;;17.10;99.90;;;17.94;96.83;97734.56;10435134;28;20222;-81
2023/09/19 05:41:02;;;;;;;2.40;1.75;;;17.10;99.90;;;17.99;96.37;97742.44;10442664;28;20249;-80
2023/09/19 05:46:05;;;;;;;2.00;1.90;;;17.20;99.90;;;18.01;96.96;97745.94;10435527;28;20247;-80
2023/09/19 05:51:10;;;;;;;2.47;1.77;;;17.20;99.90;;;17.95;97.16;97754.41;10440993;28;20933;-81
2023/09/19 05:56:13;;;;;;;2.30;1.80;;;17.20;99.90;;;17.85;100.00;97762.75;10437500;28;20229;-80
2023/09/19 06:01:17;;;;;;;2.22;2.03;;;17.10;99.90;;;17.62;100.00;97776.72;10424233;28;20363;-82
2023/09/19 06:06:24;;;;;;;2.50;2.05;;;17.00;99.90;;;17.53;100.00;97773.06;10423769;28;20221;-80
2023/09/19 06:11:29;;;;;;;2.47;1.98;;;16.90;99.90;;;17.45;100.00;97786.59;10426025;28;20237;-81
2023/09/19 06:16:32;;;;;;;2.03;1.92;;;16.80;99.90;;;17.43;100.00;97791.72;10424618;28;20217;-81
2023/09/19 06:21:38;;;;;;;2.92;2.15;;;16.70;99.90;;;17.25;100.00;97798.94;10430386;28;20240;-80
2023/09/19 06:26:42;;;;;;;2.13;1.92;;;16.70;99.90;;;17.17;100.00;97808.16;10427083;28;20274;-80
2023/09/19 06:31:45;;;;;;;4.75;2.00;;;16.60;99.90;;;17.12;100.00;97828.69;10425138;28;20340;-78
2023/09/19 06:36:52;;;;;;;2.13;1.88;;;16.60;99.90;;;16.82;100.00;97841.50;10423649;28;20225;-80
2023/09/19 06:41:56;;;;;;;2.15;1.95;;;16.40;99.90;;;16.63;100.00;97838.31;10434080;28;20787;-78
2023/09/19 06:46:59;;;;;;;2.40;2.20;;;16.10;99.90;;;16.46;100.00;97846.31;10449355;28;20241;-81
2023/09/19 06:52:04;;;;;;;2.85;2.47;;;16.00;99.90;;;16.37;100.00;97864.94;10460888;28;20649;-78
2023/09/19 06:57:10;;;;;;;3.13;2.83;;;15.90;99.90;;;16.29;100.00;97868.94;10449745;28;20261;-79
2023/09/19 07:02:13;;;;;;;2.63;2.38;;;15.80;99.90;;;16.06;100.00;97863.88;10450938;28;20643;-80
2023/09/19 07:07:18;;;;;;;3.30;2.50;;;15.60;99.90;;;15.96;100.00;97862.63;10450819;28;20229;-79
2023/09/19 07:12:21;;;;;;;5.10;2.80;;;15.40;99.90;;;15.91;100.00;97881.34;10456535;28;20221;-79
2023/09/19 07:17:25;;;;;;;3.38;2.88;;;15.40;99.90;;;16.06;100.00;97876.75;10461253;28;20221;-80
2023/09/19 07:22:29;;;;;;;4.60;3.28;;;15.50;99.90;;;16.14;100.00;97888.22;10453356;28;20225;-79
2023/09/19 07:27:33;;;;;;;4.18;3.28;;;15.50;99.90;;;16.02;100.00;97882.59;10441461;28;20229;-79
2023/09/19 07:32:37;;;;;;;3.63;3.28;;;15.50;99.90;;;16.14;100.00;97885.66;10443833;28;20257;-81
2023/09/19 07:37:42;;;;;;;4.22;3.47;;;15.60;99.90;;;16.35;100.00;97890.66;10464750;28;20962;-81
2023/09/19 07:42:46;;;;;;;5.22;3.83;;;15.80;99.90;;;16.80;100.00;97899.97;10444825;28;20221;-80
2023/09/19 07:47:51;;;;;;;4.03;3.63;;;16.30;99.90;;;17.32;100.00;97905.09;10466303;28;20221;-79
2023/09/19 07:52:56;;;;;;;5.00;3.47;;;16.80;99.90;;;17.51;100.00;97905.66;10460692;28;20217;-78
2023/09/19 07:57:59;;;;;;;3.88;2.92;;;17.00;99.90;;;17.65;100.00;97911.25;10454343;28;20308;-80
2023/09/19 08:03:04;;;;;;;3.75;3.30;;;17.00;99.90;;;17.75;100.00;97910.69;10457741;28;20240;-80
2023/09/19 08:08:21;;;;;;;3.25;2.97;;;17.10;99.90;;;17.81;100.00;97918.66;10467169;28;20702;-81
2023/09/19 08:13:25;;;;;;;3.88;2.83;;;17.20;99.90;;;17.94;100.00;97922.47;10455862;28;20317;-81
2023/09/19 08:18:30;;;;;;;5.78;3.10;;;17.40;99.90;;;18.39;100.00;97922.88;10453215;28;20246;-81
2023/09/19 08:23:34;;;;;;;3.28;2.97;;;17.90;99.90;;;18.81;100.00;97924.03;10474348;28;20229;-83
2023/09/19 08:28:40;;;;;;;3.65;2.40;;;18.40;99.90;;;19.25;100.00;97932.00;10459259;28;20224;-81
2023/09/19 08:33:48;;;;;;;3.03;2.70;;;18.90;99.90;;;19.63;100.00;97926.84;10472167;28;20225;-82
2023/09/19 08:38:53;;;;;;;4.82;2.65;;;19.30;99.90;;;19.74;98.74;97928.88;10472069;28;20213;-81
2023/09/19 08:44:01;;;;;;;3.30;2.50;;;19.30;99.90;;;19.89;98.27;97927.47;10463366;28;20274;-82
2023/09/19 08:49:11;;;;;;;2.60;2.40;;;19.40;99.90;;;19.93;100.00;97929.28;10452674;28;20259;-81
2023/09/19 08:54:26;;;;;;;2.60;2.40;;;19.40;99.90;;;19.67;96.58;97926.97;10453616;28;20213;-80
2023/09/19 08:59:31;;;;;;;2.55;2.35;;;19.10;99.90;;;20.04;97.62;97927.78;10452584;28;20678;-83
2023/09/19 09:04:35;;;;;;;2.42;2.10;;;19.50;99.90;;;20.31;92.02;97931.78;10457741;28;20232;-82
2023/09/19 09:09:42;;;;;;;2.58;2.15;;;20.00;99.90;;;20.53;90.40;97938.28;10448113;28;20256;-81
2023/09/19 09:14:49;;;;;;;2.67;2.33;;;20.10;99.90;;;20.28;88.46;97936.91;10441318;28;20229;-81
2023/09/19 09:19:53;;;;;;;2.60;2.10;;;19.70;99.90;;;19.92;87.56;97948.28;10460538;28;20768;-81
2023/09/19 09:25:03;;;;;;;3.13;2.22;;;19.10;99.90;;;19.62;94.42;97944.13;10447895;28;20230;-81
2023/09/19 09:30:08;;;;;;;2.47;2.22;;;18.80;99.90;;;19.35;90.63;97936.59;10456190;28;20282;-81
2023/09/19 09:35:14;;;;;;;2.42;2.22;;;18.70;99.90;;;19.68;96.58;97933.03;10455127;28;20260;-79
2023/09/19 09:40:35;;;;;;;2.42;2.20;;;19.00;99.90;;;20.33;92.64;97933.56;10454536;28;20233;-79
2023/09/19 09:45:48;;;;;;;2.03;1.92;;;19.60;99.90;;;20.76;89.86;97930.94;10463856;28;20221;-81
2023/09/19 09:50:56;;;;;;;2.58;2.22;;;20.20;99.90;;;21.12;83.73;97931.56;10450374;28;20230;-82
2023/09/19 09:56:05;;;;;;;3.08;1.92;;;20.40;99.90;;;21.53;88.39;97922.69;10454994;28;20224;-81
2023/09/19 10:01:15;;;;;;;3.17;2.13;;;20.80;99.90;;;21.19;78.67;97926.47;10458966;28;20652;-81
2023/09/19 10:06:28;;;;;;;1.98;1.83;;;20.50;99.90;;;20.69;78.82;97927.34;10439712;28;20226;-82
2023/09/19 10:11:32;;;;;;;2.40;2.05;;;19.90;99.90;;;20.71;85.61;97930.81;10445871;28;21079;-80
2023/09/19 10:16:41;;;;;;;2.45;1.85;;;19.80;99.90;;;20.61;84.08;97927.19;10458050;28;20278;-80
2023/09/19 10:21:46;;;;;;;2.40;1.58;;;19.50;99.90;;;20.50;83.99;97927.81;10445748;28;20303;-80
2023/09/19 10:26:51;;;;;;;2.33;1.67;;;19.50;99.90;;;20.76;82.57;97925.72;10454155;28;20260;-81
2023/09/19 10:31:55;;;;;;;2.28;2.08;;;19.60;99.90;;;20.70;79.45;97927.34;10451381;28;20283;-80
2023/09/19 10:37:02;;;;;;;3.25;2.00;;;19.70;99.90;;;20.88;74.32;97923.34;10446500;28;20307;-81
2023/09/19 10:42:08;;;;;;;2.05;1.85;;;19.90;99.90;;;21.02;73.46;97923.56;10458853;28;20284;-81
2023/09/19 10:47:13;;;;;;;2.10;1.70;;;20.10;99.90;;;21.04;70.61;97920.16;10461053;28;20217;-81
2023/09/19 10:52:23;;;;;;;2.00;1.90;;;20.10;99.90;;;21.35;70.17;97929.31;10453668;28;20229;-82
2023/09/19 10:57:28;;;;;;;2.10;1.95;;;20.60;99.90;;;21.53;68.00;97923.56;10446565;28;20256;-82
2023/09/19 11:02:31;;;;;;;2.10;1.90;;;20.80;99.90;;;21.95;69.09;97914.59;10444928;28;20697;-82
2023/09/19 11:07:59;;;;;;;1.90;1.80;;;21.30;99.90;;;22.57;62.02;97907.50;10452403;28;20247;-82
2023/09/19 11:13:26;;;;;;;2.10;1.90;;;21.90;99.90;;;22.79;60.62;97914.69;10449895;28;20271;-81
2023/09/19 11:18:55;;;;;;;2.40;1.65;;;22.10;99.90;;;22.48;59.88;97897.88;10440862;28;20243;-79
2023/09/19 11:24:31;;;;;;;2.30;1.63;;;21.80;99.90;;;22.44;59.12;97889.16;10451422;28;20229;-81
2023/09/19 11:29:36;;;;;;;2.53;1.80;;;21.80;99.90;;;22.69;57.20;97876.34;10457933;28;20307;-81
2023/09/19 11:34:50;;;;;;;2.13;1.67;;;22.00;99.90;;;22.63;55.43;97881.50;10447251;28;20213;-81
2023/09/19 11:40:15;;;;;;;2.40;1.70;;;22.00;99.90;;;22.59;53.99;97871.94;10435288;28;20244;-81
2023/09/19 11:46:08;;;;;;;1.90;1.67;;;21.90;99.90;;;22.60;53.37;97886.69;10449587;28;20256;-80
2023/09/19 11:51:19;;;;;;;2.47;1.60;;;22.00;99.90;;;22.80;53.23;97874.72;10445757;28;20225;-80
2023/09/19 11:56:24;;;;;;;1.70;1.60;;;22.10;99.90;;;22.92;54.29;97869.63;10437112;28;20226;-79
2023/09/19 12:01:32;;;;;;;1.80;1.70;;;22.30;99.90;;;22.98;53.94;97873.16;10456311;28;20229;-80
2023/09/19 12:06:38;;;;;;;2.05;1.42;;;22.30;99.80;;;22.90;54.46;97860.06;10442570;28;20282;-80
2023/09/19 12:11:45;;;;;;;2.53;1.52;;;22.20;99.90;;;23.11;53.83;97854.16;10445364;28;20229;-78
2023/09/19 12:16:55;;;;;;;1.83;1.63;;;22.40;99.60;;;23.08;52.69;97857.59;10453006;28;20279;-81
2023/09/19 12:22:04;;;;;;;2.35;1.80;;;22.30;98.90;;;23.08;50.87;97851.53;10456530;28;20706;-80
2023/09/19 12:27:09;;;;;;;2.22;2.03;;;22.50;97.40;;;23.32;50.69;97849.09;10447315;28;20216;-80
2023/09/19 12:32:16;;;;;;;2.10;1.67;;;22.70;97.40;;;23.42;50.82;97844.78;10451481;28;20285;-80
2023/09/19 12:37:22;;;;;;;1.50;1.40;;;22.80;97.20;;;23.61;51.83;97835.34;10457185;28;20256;-79
2023/09/19 12:42:29;;;;;;;2.10;1.60;;;22.90;97.90;;;23.98;49.89;97838.13;10466144;28;20232;-80
2023/09/19 12:47:34;;;;;;;2.00;1.50;;;23.40;97.00;;;23.92;49.09;97848.53;10465956;28;20307;-81
2023/09/19 12:52:39;;;;;;;3.70;1.73;;;23.20;96.20;;;23.78;48.92;97845.91;10454785;28;20283;-79
2023/09/19 12:57:43;;;;;;;1.83;1.52;;;22.90;96.30;;;23.39;50.12;97834.34;10449880;28;20241;-81
2023/09/19 13:03:15;;;;;;;1.90;1.80;;;22.50;97.00;;;23.58;49.28;97833.59;10452287;28;20244;-80
2023/09/19 13:08:22;;;;;;;3.20;1.85;;;22.70;96.70;;;23.72;49.29;97828.47;10463747;28;20225;-79
2023/09/19 13:13:28;;;;;;;1.60;1.50;;;22.90;96.50;;;23.61;48.98;97825.78;10454576;28;20237;-80
2023/09/19 13:18:33;;;;;;;1.60;1.50;;;22.80;96.00;;;23.75;48.17;97825.88;10461664;28;20263;-81
2023/09/19 13:23:37;;;;;;;1.70;1.58;;;22.90;95.60;;;23.80;48.51;97823.25;10454849;28;20233;-80
2023/09/19 13:28:41;;;;;;;1.60;1.50;;;23.10;95.50;;;23.67;48.39;97819.72;10460827;28;20233;-81
2023/09/19 13:33:47;;;;;;;2.17;1.33;;;23.10;95.30;;;23.82;49.10;97818.94;10458532;28;20221;-80
2023/09/19 13:38:53;;;;;;;1.70;1.60;;;23.10;95.90;;;23.60;49.61;97807.47;10455831;28;20283;-80
2023/09/19 13:43:57;;;;;;;1.80;1.70;;;22.90;96.00;;;23.33;51.98;97806.50;10455696;28;20224;-79
2023/09/19 13:49:03;;;;;;;2.25;1.70;;;22.70;97.60;;;23.29;49.59;97799.53;10443462;28;20229;-81
2023/09/19 13:54:06;;;;;;;2.10;1.83;;;22.60;96.00;;;23.44;48.81;97795.25;10443071;28;20994;-80
2023/09/19 13:59:10;;;;;;;1.92;1.83;;;22.70;95.80;;;23.48;48.82;97791.78;10449887;28;20229;-80
2023/09/19 14:04:15;;;;;;;2.03;1.80;;;22.90;95.10;;;23.41;50.28;97787.38;10432377;28;20225;-81
2023/09/19 14:09:19;;;;;;;2.67;1.77;;;22.70;96.30;;;23.55;50.08;97798.75;10454829;28;20225;-79
2023/09/19 14:14:23;;;;;;;2.13;1.67;;;22.80;96.20;;;23.63;48.32;97785.75;10455935;28;20612;-81
2023/09/19 14:19:28;;;;;;;2.58;1.70;;;22.90;95.20;;;23.45;49.87;97789.16;10447955;28;20236;-80
2023/09/19 14:24:31;;;;;;;2.13;1.70;;;22.70;96.20;;;23.31;51.00;97791.69;10446386;28;20256;-82
2023/09/19 14:29:35;;;;;;;2.42;1.60;;;22.50;96.70;;;23.26;50.49;97786.44;10445321;28;20297;-80
2023/09/19 14:34:42;;;;;;;2.03;1.90;;;22.40;96.50;;;23.06;50.82;97781.09;10437855;28;20280;-80
2023/09/19 14:39:46;;;;;;;1.75;1.65;;;22.30;96.50;;;23.31;50.40;97776.91;10440377;28;20240;-80
2023/09/19 14:44:50;;;;;;;2.03;1.63;;;22.30;96.80;;;23.04;50.95;97780.25;10451375;28;20226;-81
2023/09/19 14:49:55;;;;;;;1.70;1.58;;;22.30;96.70;;;23.14;49.56;97786.38;10440533;28;20256;-81
2023/09/19 14:54:58;;;;;;;1.70;1.60;;;22.20;96.10;;;22.90;50.23;97782.72;10440785;28;20228;-80
2023/09/19 15:00:05;;;;;;;2.28;1.45;;;22.10;96.00;;;22.86;49.80;97780.97;10447212;28;21069;-80
2023/09/19 15:05:11;;;;;;;2.00;1.90;;;22.10;95.80;;;22.92;50.92;97774.88;10432367;28;20217;-80
2023/09/19 15:10:14;;;;;;;2.08;1.90;;;22.00;97.00;;;22.79;51.88;97773.06;10435591;28;20279;-80
2023/09/19 15:15:17;;;;;;;2.67;1.70;;;21.90;97.40;;;22.83;51.94;97770.50;10439945;28;20274;-81
2023/09/19 15:20:22;;;;;;;2.00;1.80;;;21.90;97.40;;;22.84;51.89;97761.81;10435531;28;20220;-81
2023/09/19 15:25:27;;;;;;;2.00;1.90;;;21.90;97.40;;;22.89;50.71;97749.69;10443136;28;20220;-81
2023/09/19 15:30:30;;;;;;;1.55;1.45;;;22.00;96.60;;;23.01;48.67;97758.50;10447840;28;20255;-81
2023/09/19 15:35:36;;;;;;;1.60;1.50;;;22.00;95.50;;;22.91;48.57;97753.16;10448194;28;20225;-81
2023/09/19 15:40:47;;;;;;;1.92;1.67;;;22.00;95.30;;;22.75;49.71;97753.94;10453786;28;20323;-81
2023/09/19 15:45:51;;;;;;;1.75;1.65;;;21.90;95.80;;;22.70;48.13;97755.63;10437738;28;20908;-80
2023/09/19 15:50:56;;;;;;;1.75;1.58;;;21.80;94.80;;;22.47;51.51;97753.72;10446803;28;20224;-79
2023/09/19 15:56:07;;;;;;;1.73;1.42;;;21.70;96.90;;;22.36;50.93;97752.75;10450951;28;20259;-82
2023/09/19 16:01:10;;;;;;;1.92;1.80;;;21.50;96.40;;;22.37;50.11;97745.81;10450338;28;20636;-81
2023/09/19 16:06:17;;;;;;;1.52;1.42;;;21.50;95.90;;;22.20;51.39;97743.06;10458199;28;20733;-79
2023/09/19 16:11:21;;;;;;;2.10;1.40;;;21.40;96.50;;;22.30;51.64;97747.50;10460002;28;20319;-80
2023/09/19 16:16:29;;;;;;;1.80;1.67;;;21.40;97.30;;;22.03;53.10;97761.97;10468638;28;20233;-79
2023/09/19 16:21:36;;;;;;;1.60;1.50;;;21.20;97.70;;;21.90;53.50;97757.50;10455489;28;20333;-81
2023/09/19 16:26:39;;;;;;;1.98;1.88;;;21.00;98.20;;;21.73;54.99;97753.84;10450213;28;20213;-79
2023/09/19 16:31:42;;;;;;;2.30;1.65;;;20.90;99.80;;;21.54;57.22;97743.19;10446444;28;20263;-78
2023/09/19 16:36:47;;;;;;;2.00;1.83;;;20.70;99.90;;;21.35;57.71;97749.03;10461220;28;20225;-80
2023/09/19 16:41:51;;;;;;;2.08;1.98;;;20.50;99.90;;;21.18;59.12;97747.94;10456783;28;20233;-78
2023/09/19 16:46:54;;;;;;;1.73;1.63;;;20.30;99.90;;;21.01;63.65;97752.91;10448079;28;20222;-80
2023/09/19 16:51:59;;;;;;;1.92;1.75;;;20.10;99.90;;;20.88;63.97;97750.09;10449494;28;20795;-79
2023/09/19 16:57:03;;;;;;;2.20;2.00;;;20.00;99.90;;;20.74;65.32;97750.75;10429641;28;20247;-79
2023/09/19 17:02:08;;;;;;;3.70;2.08;;;19.80;99.90;;;20.60;67.31;97754.03;10429213;28;20245;-80
2023/09/19 17:07:13;;;;;;;2.45;2.25;;;19.60;99.90;;;20.46;70.12;97745.13;10426879;28;20253;-79
2023/09/19 17:12:16;;;;;;;3.13;1.92;;;19.50;99.90;;;20.30;69.15;97743.97;10436809;28;20221;-79
2023/09/19 17:17:19;;;;;;;3.15;2.05;;;19.40;99.90;;;20.11;71.31;97754.88;10438879;28;20669;-79
2023/09/19 17:22:24;;;;;;;3.42;2.28;;;19.10;99.90;;;19.95;73.31;97757.22;10423296;28;20244;-80
2023/09/19 17:27:27;;;;;;;2.38;1.90;;;19.00;99.90;;;19.82;74.93;97755.22;10432268;28;20252;-79
2023/09/19 17:32:31;;;;;;;2.88;2.03;;;18.80;99.90;;;19.63;75.10;97763.47;10442643;28;20336;-80
2023/09/19 17:37:36;;;;;;;2.00;1.90;;;18.70;99.90;;;19.50;76.54;97767.53;10447241;28;20257;-80
2023/09/19 17:42:41;;;;;;;2.05;1.85;;;18.50;99.90;;;19.26;77.81;97773.97;10445415;28;20229;-82
2023/09/19 17:47:46;;;;;;;2.78;2.08;;;18.30;99.90;;;19.04;77.78;97782.13;10427006;28;20232;-80
2023/09/19 17:52:50;;;;;;;2.05;1.85;;;18.00;99.90;;;18.81;78.67;97794.53;10427009;28;20600;-82
2023/09/19 17:57:54;;;;;;;2.33;2.17;;;17.90;99.90;;;18.77;78.12;97787.50;10434629;28;20284;-80
2023/09/19 18:03:04;;;;;;;3.63;2.28;;;17.80;99.90;;;18.59;80.34;97787.94;10422672;28;20638;-80
2023/09/19 18:08:09;;;;;;;2.10;1.90;;;17.60;99.90;;;18.36;81.58;97785.63;10431155;28;20225;-80
2023/09/19 18:13:13;;;;;;;2.13;1.90;;;17.40;99.90;;;18.20;81.84;97793.88;10428152;28;21216;-81
2023/09/19 18:18:17;;;;;;;2.30;2.10;;;17.30;99.90;;;18.02;83.18;97792.53;10420392;28;20248;-80
2023/09/19 18:23:22;;;;;;;2.60;2.40;;;17.10;99.90;;;17.82;82.75;97792.81;10433228;28;20259;-80
2023/09/19 18:28:25;;;;;;;2.78;2.10;;;16.90;99.90;;;17.84;84.03;97799.81;10442166;28;20244;-80
2023/09/19 18:33:29;;;;;;;2.25;2.05;;;16.90;99.90;;;17.67;84.73;97811.34;10430199;28;20235;-82
2023/09/19 18:38:38;;;;;;;2.47;2.28;;;16.70;99.90;;;17.54;85.48;97815.28;10435881;28;20291;-81
2023/09/19 18:43:41;;;;;;;1.77;1.67;;;16.60;99.90;;;17.41;86.02;97819.22;10442217;28;20233;-82
2023/09/19 18:48:47;;;;;;;2.70;2.50;;;16.50;99.90;;;17.15;85.13;97818.44;10435048;28;20224;-83
2023/09/19 18:53:52;;;;;;;2.53;2.33;;;16.20;99.90;;;17.21;86.61;97820.34;10436267;28;20252;-82
2023/09/19 18:59:13;;;;;;;3.38;2.22;;;16.30;99.90;;;17.06;86.65;97821.63;10441655;28;20264;-82
2023/09/19 19:04:18;;;;;;;2.42;2.17;;;16.20;99.90;;;16.99;87.91;97822.25;10436828;28;20231;-80
2023/09/19 19:09:23;;;;;;;2.50;2.30;;;16.10;99.90;;;16.90;88.81;97832.28;10426880;28;20232;-81
2023/09/19 19:14:27;;;;;;;2.67;2.33;;;16.00;99.90;;;16.82;88.76;97841.50;10443993;28;20389;-81
2023/09/19 19:19:31;;;;;;;2.63;2.42;;;15.90;99.90;;;16.71;89.16;97843.72;10434503;28;20280;-80
2023/09/19 19:24:36;;;;;;;3.40;2.03;;;15.80;99.90;;;16.47;88.37;97848.94;10438278;28;20248;-81
2023/09/19 19:29:39;;;;;;;2.30;2.10;;;15.60;99.90;;;16.36;89.02;97839.94;10435502;28;20237;-82
2023/09/19 19:34:42;;;;;;;2.65;2.45;;;15.50;99.90;;;16.30;90.14;97850.06;10422207;28;20225;-80
2023/09/19 19:39:47;;;;;;;2.70;2.08;;;15.40;99.90;;;16.03;88.96;97856.03;10421160;28;20539;-79
2023/09/19 19:44:53;;;;;;;2.63;1.92;;;15.20;99.90;;;15.77;89.86;97866.28;10419431;28;21023;-81
2023/09/19 19:49:58;;;;;;;2.83;2.50;;;15.00;99.90;;;15.85;90.47;97863.06;10424409;28;20252;-80
2023/09/19 19:55:03;;;;;;;2.80;2.42;;;15.00;99.90;;;15.83;91.83;97877.63;10415567;28;20313;-80
2023/09/19 20:00:09;;;;;;;2.28;2.08;;;15.00;99.90;;;15.88;91.88;97879.56;10420054;28;20971;-79
2023/09/19 20:05:12;;;;;;;2.53;2.33;;;15.00;99.90;;;15.59;90.92;97881.00;10438755;28;20233;-80
2023/09/19 20:10:19;;;;;;;2.70;2.30;;;14.80;99.90;;;15.64;91.80;97882.06;10427565;28;20236;-78
2023/09/19 20:15:24;;;;;;;2.92;2.63;;;14.80;99.90;;;15.64;92.34;97876.03;10420118;28;21021;-78
2023/09/19 20:20:27;;;;;;;2.63;2.40;;;14.80;99.90;;;15.54;92.22;97874.81;10420866;28;20299;-78
2023/09/19 20:25:35;;;;;;;2.83;2.28;;;14.70;99.90;;;15.50;92.32;97885.81;10419651;28;20655;-78
2023/09/19 20:30:41;;;;;;;3.63;2.60;;;14.60;99.90;;;15.50;93.03;97873.78;10423966;28;20287;-78
2023/09/19 20:35:45;;;;;;;2.55;2.35;;;14.60;99.90;;;15.36;93.35;97880.13;10418183;28;20229;-80
2023/09/19 20:40:50;;;;;;;3.42;2.55;;;14.50;99.90;;;15.29;95.21;97883.28;10439975;28;20232;-80
2023/09/19 20:45:53;;;;;;;3.03;2.72;;;14.40;99.90;;;15.07;95.77;97881.56;10425150;28;20229;-80
2023/09/19 20:50:56;;;;;;;3.60;2.88;;;14.20;99.90;;;14.98;95.98;97887.22;10443091;28;20978;-78
2023/09/19 20:56:03;;;;;;;3.17;2.63;;;14.20;99.90;;;14.96;96.51;97893.13;10453725;28;20225;-78
2023/09/19 21:01:08;;;;;;;3.30;2.90;;;14.20;99.90;;;15.01;96.80;97891.63;10441789;28;20217;-80
2023/09/19 21:06:14;;;;;;;2.63;2.42;;;14.20;99.90;;;14.93;96.75;97898.16;10430692;28;20294;-80
2023/09/19 21:11:21;;;;;;;3.25;2.92;;;14.10;99.90;;;14.87;97.63;97903.94;10433524;28;20590;-79